Hovedside
METAR-TAF:

METAR-TAF

Lufthavner :

Damaskus, Syria

breddegrad: 33-25N, lengdegrad: 036-31E, høyde over havet: 608 m

Gjeldene værobservasjon

Denne rapporten ble laget for 55 minutter siden, klokken 15:00 UTC
Vind 3 kt fra Nordøst
Temperatur 14°C
Luftfuktighet 24%
Trykk 1021 hPa
Sikt 10 km eller mer
ingen skyer under 1500 m og ingen bygeskyer

METAR: OSDI 201500Z 05003KT CAVOK 14/M06 Q1021

Tid: 17:55 (15:55 UTC)

Varsel

Varsel gyldig fra 20. klokken 12 UTC til 21. klokken 18 UTC
Vind 10 kt fra Øst-nordøst
Sikt 10 km eller mer
Få skyer i en høyde av 3000 ft
Midlertidig
fra 20. klokken 18 UTC til 21. klokken 09 UTC
Vind 3 kt fra skiftende retning
Sikt 10 km eller mer
ingen skyer under 1500 m og ingen bygeskyer

TAF: OSDI 2012/2118 06010KT 9999 FEW030 TEMPO 2018/2109 VRB03KT CAVOK

Værobservasjoner og værvarsel for over 4000 flyplasser (METAR- og TAF-rapporter).

Tilgjengelige stasjoner er representert av de røde og gule prikkene på kartet.

Hold musepekeren over prikken for å se navnet på stasjonen.

Klikk så for å se værobservasjoner og -varsler.

For å forandre kartet kan du klikke på den grønne knappen med svart kryss for å zoome inn, på den grønne knappen med strek for å zoome ut, eller på de grønne pilene for å se tilstøtende kart.


METAR-TAF: